Time;durP1;ratioP1;P1;durP2;ratioP2;P2;SDS_P1;SDS_P2;PMS_P1;PMS_P2;Temp;Humidity;BMP_temperature;BMP_pressure;BME280_temperature;BME280_humidity;BME280_pressure;Samples;Min_cycle;Max_cycle;Signal;HPM_P1;HPM_P2
2022/01/31 00:01:41;;;;;;;13.17;3.40;;;;;;;1.60;100.00;94914.19;5056621;28;20573;-73
2022/01/31 00:04:26;;;;;;;13.47;3.10;;;;;;;1.78;100.00;94895.91;5051954;28;20193;-73
2022/01/31 00:07:12;;;;;;;8.10;3.30;;;;;;;1.89;100.00;94877.72;5061857;28;20647;-73
2022/01/31 00:09:58;;;;;;;12.03;3.37;;;;;;;1.88;100.00;94856.59;5036581;28;20589;-71
2022/01/31 00:12:57;;;;;;;11.00;3.10;;;;;;;1.83;100.00;94847.00;5050137;28;20205;-72
2022/01/31 00:15:46;;;;;;;8.70;3.13;;;;;;;1.90;100.00;94881.19;5042777;28;20197;-72
2022/01/31 00:18:32;;;;;;;11.60;3.10;;;;;;;1.84;100.00;94848.56;5069697;28;20251;-72
2022/01/31 00:21:18;;;;;;;7.73;2.63;;;;;;;1.66;100.00;94839.91;5061537;28;20360;-72
2022/01/31 00:24:04;;;;;;;12.13;3.07;;;;;;;1.74;100.00;94844.06;5077536;28;20193;-72
2022/01/31 00:26:51;;;;;;;11.43;3.60;;;;;;;1.67;100.00;94851.44;5072558;28;20619;-72
2022/01/31 00:29:38;;;;;;;9.40;3.33;;;;;;;1.73;100.00;94831.75;5065303;28;20197;-72
2022/01/31 00:32:23;;;;;;;12.53;3.63;;;;;;;1.63;100.00;94840.69;5056408;28;20233;-72
2022/01/31 00:35:10;;;;;;;7.13;2.50;;;;;;;1.68;100.00;94821.41;5066196;28;20201;-72
2022/01/31 00:37:56;;;;;;;9.33;2.67;;;;;;;1.72;100.00;94816.00;5054806;28;20319;-72
2022/01/31 00:40:42;;;;;;;9.57;2.93;;;;;;;1.64;100.00;94814.56;5047467;28;20229;-72
2022/01/31 00:43:28;;;;;;;11.43;3.30;;;;;;;1.68;100.00;94797.19;5053409;28;20685;-73
2022/01/31 00:46:22;;;;;;;10.57;3.20;;;;;;;1.87;100.00;94779.66;5071110;28;20632;-73
2022/01/31 00:49:16;;;;;;;14.67;2.97;;;;;;;1.83;100.00;94768.94;5048924;28;20638;-73
2022/01/31 00:52:03;;;;;;;10.20;3.33;;;;;;;1.74;100.00;94763.28;5072996;28;20218;-73
2022/01/31 00:54:49;;;;;;;7.80;2.90;;;;;;;1.75;100.00;94756.72;5053304;28;20190;-73
2022/01/31 00:57:35;;;;;;;7.90;3.03;;;;;;;1.73;100.00;94750.25;5048183;28;20566;-73
2022/01/31 01:00:21;;;;;;;12.23;3.33;;;;;;;1.86;100.00;94752.00;5066235;28;20550;-73
2022/01/31 01:03:07;;;;;;;9.73;2.90;;;;;;;1.73;100.00;94755.63;5053823;28;20213;-73
2022/01/31 01:05:53;;;;;;;8.50;2.67;;;;;;;1.56;100.00;94757.34;5044377;28;20250;-73
2022/01/31 01:08:39;;;;;;;11.20;2.90;;;;;;;1.53;100.00;94760.84;5055372;28;20203;-73
2022/01/31 01:11:25;;;;;;;8.00;2.77;;;;;;;1.53;100.00;94768.91;5035244;28;20214;-73
2022/01/31 01:14:12;;;;;;;11.93;3.73;;;;;;;1.49;100.00;94746.69;5071906;28;20217;-73
2022/01/31 01:16:57;;;;;;;10.77;2.50;;;;;;;1.37;100.00;94767.97;5042329;28;20273;-73
2022/01/31 01:19:44;;;;;;;9.00;2.83;;;;;;;1.38;100.00;94767.56;5041720;28;20213;-73
2022/01/31 01:22:30;;;;;;;8.90;2.67;;;;;;;1.43;100.00;94755.59;5036427;28;20293;-73
2022/01/31 01:25:16;;;;;;;11.17;3.27;;;;;;;1.35;100.00;94746.84;5058645;28;20186;-73
2022/01/31 01:28:03;;;;;;;7.00;3.47;;;;;;;1.34;100.00;94747.25;5053505;28;20693;-73
2022/01/31 01:30:49;;;;;;;12.27;3.30;;;;;;;1.34;100.00;94750.69;5036257;28;20710;-73
2022/01/31 01:33:39;;;;;;;9.87;3.60;;;;;;;1.50;100.00;94712.44;5056415;28;20205;-73
2022/01/31 01:36:26;;;;;;;7.87;2.67;;;;;;;1.59;100.00;94732.34;5070380;28;20574;-73
2022/01/31 01:39:12;;;;;;;5.73;2.70;;;;;;;1.55;100.00;94709.31;5028233;28;20237;-73
2022/01/31 01:41:59;;;;;;;5.20;2.57;;;;;;;1.63;100.00;94706.13;5040832;28;20238;-73
2022/01/31 01:44:50;;;;;;;11.17;3.03;;;;;;;1.77;100.00;94697.88;5031251;28;20332;-73
2022/01/31 01:47:38;;;;;;;10.10;3.10;;;;;;;1.82;100.00;94693.97;5057265;28;20229;-73
2022/01/31 01:50:25;;;;;;;11.80;3.10;;;;;;;1.89;100.00;94686.56;5076612;28;20197;-73
2022/01/31 01:53:14;;;;;;;9.73;3.27;;;;;;;1.98;100.00;94667.19;5069641;28;20572;-73
2022/01/31 01:56:00;;;;;;;13.67;4.40;;;;;;;1.97;100.00;94665.69;5073895;28;20201;-73
2022/01/31 01:58:49;;;;;;;11.93;5.83;;;;;;;1.99;100.00;94657.94;5050749;28;20197;-73
2022/01/31 02:01:35;;;;;;;12.90;6.63;;;;;;;1.85;100.00;94645.44;5051640;28;20260;-73
2022/01/31 02:04:21;;;;;;;20.33;7.50;;;;;;;1.93;100.00;94627.28;5053771;28;20198;-73
2022/01/31 02:07:08;;;;;;;19.33;7.90;;;;;;;1.77;100.00;94630.56;5052658;28;20278;-73
2022/01/31 02:09:56;;;;;;;17.77;6.83;;;;;;;1.68;100.00;94600.72;5092282;28;20220;-73
2022/01/31 02:12:45;;;;;;;18.37;6.17;;;;;;;1.83;100.00;94588.56;5070277;28;20227;-73
2022/01/31 02:15:40;;;;;;;11.27;3.23;;;;;;;1.79;100.00;94577.09;5060410;28;20197;-72
2022/01/31 02:18:49;;;;;;;10.50;3.67;;;;;;;1.78;100.00;94578.25;5063247;28;20202;-72
2022/01/31 02:21:55;;;;;;;15.40;5.47;;;;;;;1.77;100.00;94584.03;5064882;28;20252;-72
2022/01/31 02:25:14;;;;;;;12.07;3.37;;;;;;;1.70;100.00;94593.00;5015901;28;20211;-72
2022/01/31 02:28:19;;;;;;;8.57;3.33;;;;;;;1.50;100.00;94592.16;5067199;28;20277;-73
2022/01/31 02:31:06;;;;;;;7.13;2.60;;;;;;;1.51;100.00;94587.53;5060111;28;20205;-73
2022/01/31 02:33:52;;;;;;;9.90;3.37;;;;;;;1.71;100.00;94586.47;5055547;28;20238;-72
2022/01/31 02:36:38;;;;;;;5.03;2.50;;;;;;;1.96;100.00;94557.19;5063148;28;20213;-72
2022/01/31 02:39:24;;;;;;;9.00;2.83;;;;;;;1.77;100.00;94559.81;5061191;28;20196;-72
2022/01/31 02:42:11;;;;;;;12.00;3.63;;;;;;;1.84;100.00;94551.63;5071899;28;20230;-72
2022/01/31 02:44:58;;;;;;;13.50;3.40;;;;;;;1.72;100.00;94552.22;5054640;28;20304;-72
2022/01/31 02:47:51;;;;;;;6.20;2.50;;;;;;;1.79;100.00;94552.88;5055713;28;20219;-72
2022/01/31 02:50:40;;;;;;;7.50;2.90;;;;;;;1.72;100.00;94538.75;5065337;28;20640;-72
2022/01/31 02:53:29;;;;;;;10.47;2.90;;;;;;;2.01;100.00;94519.03;5066038;28;20641;-72
2022/01/31 02:56:15;;;;;;;7.87;3.40;;;;;;;1.87;100.00;94511.19;5053841;28;20205;-72
2022/01/31 02:59:01;;;;;;;11.63;3.73;;;;;;;1.79;100.00;94509.78;5072289;28;20568;-72
2022/01/31 03:01:50;;;;;;;10.63;3.03;;;;;;;1.62;100.00;94508.16;5055505;28;20234;-72
2022/01/31 03:04:36;;;;;;;11.00;3.03;;;;;;;1.64;100.00;94503.13;5055357;28;20240;-72
2022/01/31 03:07:30;;;;;;;10.40;2.87;;;;;;;1.56;100.00;94517.84;5048745;28;20191;-72
2022/01/31 03:10:16;;;;;;;7.03;2.10;;;;;;;1.54;100.00;94490.63;5069675;28;20284;-73
2022/01/31 03:13:03;;;;;;;7.73;2.60;;;;;;;1.76;100.00;94496.41;5046963;28;20209;-72
2022/01/31 03:15:52;;;;;;;10.73;2.60;;;;;;;1.72;100.00;94482.22;5044860;28;20190;-73
2022/01/31 03:18:57;;;;;;;10.63;2.63;;;;;;;1.67;100.00;94461.16;5047455;28;20185;-73
2022/01/31 03:21:44;;;;;;;11.30;3.37;;;;;;;1.91;100.00;94463.44;5063132;28;20225;-73
2022/01/31 03:24:30;;;;;;;9.87;2.80;;;;;;;2.01;100.00;94459.78;5048401;28;20204;-73
2022/01/31 03:27:16;;;;;;;5.97;2.23;;;;;;;1.79;100.00;94445.19;5049736;28;20204;-73
2022/01/31 03:30:04;;;;;;;8.87;2.83;;;;;;;1.75;100.00;94447.19;5061978;28;20192;-73
2022/01/31 03:32:51;;;;;;;7.40;3.10;;;;;;;1.64;100.00;94457.38;5051131;28;20683;-73
2022/01/31 03:35:37;;;;;;;7.53;2.27;;;;;;;1.56;100.00;94452.53;5068148;28;20209;-74
2022/01/31 03:38:23;;;;;;;4.43;2.50;;;;;;;1.56;100.00;94463.28;5038990;28;20276;-73
2022/01/31 03:41:14;;;;;;;11.10;3.20;;;;;;;1.49;100.00;94456.09;5055193;28;20226;-73
2022/01/31 03:44:01;;;;;;;9.50;2.80;;;;;;;1.57;100.00;94419.06;5033687;28;20205;-73
2022/01/31 03:46:47;;;;;;;11.13;3.20;;;;;;;1.74;100.00;94415.28;5033553;28;20329;-73
2022/01/31 03:49:33;;;;;;;12.80;3.20;;;;;;;1.75;100.00;94425.63;5048935;28;20205;-73
2022/01/31 03:52:27;;;;;;;11.53;2.77;;;;;;;1.61;100.00;94419.75;5030367;28;20284;-73
2022/01/31 03:55:14;;;;;;;9.87;3.47;;;;;;;1.87;100.00;94411.56;5035897;28;20652;-74
2022/01/31 03:58:00;;;;;;;9.00;2.70;;;;;;;1.79;100.00;94387.91;5042647;28;20202;-73
2022/01/31 04:00:49;;;;;;;9.63;2.90;;;;;;;1.63;100.00;94356.28;5070044;28;20329;-73
2022/01/31 04:03:35;;;;;;;14.50;3.80;;;;;;;1.60;100.00;94361.72;5057441;28;20199;-73
2022/01/31 04:06:23;;;;;;;11.70;4.20;;;;;;;1.65;100.00;94383.53;5070337;28;20272;-73
2022/01/31 04:09:09;;;;;;;7.17;2.60;;;;;;;1.76;100.00;94380.66;5053821;28;20193;-73
2022/01/31 04:11:55;;;;;;;9.27;3.10;;;;;;;1.79;100.00;94366.34;5067405;28;20570;-74
2022/01/31 04:14:41;;;;;;;9.37;2.60;;;;;;;1.84;100.00;94353.19;5067145;28;20190;-73
2022/01/31 04:17:27;;;;;;;13.33;3.10;;;;;;;1.84;100.00;94339.72;5063414;28;20194;-73
2022/01/31 04:20:13;;;;;;;11.57;2.90;;;;;;;1.76;100.00;94334.91;5065594;28;20196;-73
2022/01/31 04:23:04;;;;;;;10.63;2.90;;;;;;;1.70;100.00;94325.78;5070359;28;20198;-73
2022/01/31 04:29:03;;;;;;;14.10;2.73;;;;;;;1.64;100.00;94312.06;5059949;28;20676;-74
2022/01/31 04:31:49;;;;;;;11.33;3.20;;;;;;;1.68;100.00;94304.66;5062281;28;20278;-74
2022/01/31 04:34:35;;;;;;;15.90;3.20;;;;;;;1.65;100.00;94288.56;5063461;28;20567;-73
2022/01/31 04:37:20;;;;;;;14.63;3.57;;;;;;;1.58;100.00;94286.78;5053930;28;20206;-73
2022/01/31 04:40:13;;;;;;;11.83;3.10;;;;;;;1.70;100.00;94263.88;5052179;28;20229;-73
2022/01/31 04:42:59;;;;;;;9.60;2.70;;;;;;;1.73;100.00;94268.44;5063956;28;20314;-73
2022/01/31 04:45:48;;;;;;;9.63;2.93;;;;;;;1.68;100.00;94271.63;5071472;28;20193;-73
2022/01/31 04:48:34;;;;;;;9.40;2.73;;;;;;;1.57;100.00;94274.53;5050500;28;20193;-73
2022/01/31 04:51:20;;;;;;;14.00;3.87;;;;;;;1.69;100.00;94260.44;5059325;28;20210;-73
2022/01/31 04:54:06;;;;;;;13.43;3.33;;;;;;;1.72;100.00;94254.22;5067805;28;20272;-73
2022/01/31 04:56:52;;;;;;;10.00;2.93;;;;;;;1.76;100.00;94233.38;5060899;28;20673;-72
2022/01/31 04:59:41;;;;;;;16.57;3.47;;;;;;;1.76;100.00;94214.53;5066650;28;20185;-73
2022/01/31 05:02:27;;;;;;;14.53;3.60;;;;;;;1.70;100.00;94191.97;5053882;28;20213;-72
2022/01/31 05:05:13;;;;;;;14.60;3.93;;;;;;;1.73;100.00;94206.53;5066251;28;20217;-71
2022/01/31 05:07:59;;;;;;;8.17;3.67;;;;;;;1.75;100.00;94215.69;5068328;28;20194;-72
2022/01/31 05:10:48;;;;;;;6.00;3.60;;;;;;;1.82;100.00;94229.00;5069696;28;20355;-72
2022/01/31 05:13:37;;;;;;;7.43;4.53;;;;;;;1.83;100.00;94208.25;5058435;28;20191;-72
2022/01/31 05:16:23;;;;;;;7.00;3.67;;;;;;;1.91;100.00;94218.44;5062351;28;20190;-72
2022/01/31 05:19:09;;;;;;;8.80;3.73;;;;;;;1.97;100.00;94221.41;5069436;28;20193;-73
2022/01/31 05:21:55;;;;;;;6.20;3.77;;;;;;;1.89;100.00;94214.63;5069945;28;22130;-73
2022/01/31 05:24:41;;;;;;;12.07;4.27;;;;;;;1.72;100.00;94180.78;5066720;28;20197;-73
2022/01/31 05:27:26;;;;;;;13.07;4.10;;;;;;;1.72;100.00;94161.94;5049284;28;20537;-73
2022/01/31 05:30:12;;;;;;;5.10;3.70;;;;;;;1.72;100.00;94141.19;5061878;28;20204;-73
2022/01/31 05:32:58;;;;;;;5.57;3.77;;;;;;;1.76;100.00;94146.50;5057814;28;20198;-73
2022/01/31 05:35:45;;;;;;;8.37;3.73;;;;;;;1.77;100.00;94151.44;5071571;28;20675;-73
2022/01/31 05:38:35;;;;;;;8.70;5.00;;;;;;;1.87;100.00;94160.44;5060653;28;20205;-72
2022/01/31 05:41:20;;;;;;;5.60;3.77;;;;;;;1.87;100.00;94163.91;5050205;28;20222;-73
2022/01/31 05:44:06;;;;;;;6.27;4.03;;;;;;;1.84;100.00;94162.06;5060816;28;20201;-73
2022/01/31 05:46:53;;;;;;;8.43;4.03;;;;;;;1.85;100.00;94154.75;5064264;28;20198;-73
2022/01/31 05:49:38;;;;;;;7.60;4.27;;;;;;;1.78;100.00;94142.19;5068417;28;20210;-73
2022/01/31 05:52:25;;;;;;;8.57;5.57;;;;;;;1.76;100.00;94151.88;5070015;28;20222;-73
2022/01/31 05:55:13;;;;;;;9.47;5.03;;;;;;;1.75;100.00;94153.78;5066033;28;20678;-73
2022/01/31 05:57:59;;;;;;;10.10;5.20;;;;;;;1.67;100.00;94163.22;5063286;28;20720;-72
2022/01/31 06:00:45;;;;;;;8.13;4.10;;;;;;;1.62;100.00;94136.78;5053574;28;20243;-73
2022/01/31 06:03:31;;;;;;;6.50;4.57;;;;;;;1.71;100.00;94155.81;5053028;28;20567;-73
2022/01/31 06:06:16;;;;;;;13.33;4.57;;;;;;;1.65;100.00;94152.09;5067658;28;20197;-73
2022/01/31 06:09:03;;;;;;;10.87;4.17;;;;;;;1.62;100.00;94174.47;5068080;28;20583;-73
2022/01/31 06:11:49;;;;;;;11.33;5.27;;;;;;;1.65;100.00;94167.47;5061374;28;20237;-72
2022/01/31 06:14:35;;;;;;;16.60;5.47;;;;;;;1.59;100.00;94161.84;5053570;28;20187;-72
2022/01/31 06:17:21;;;;;;;13.43;3.83;;;;;;;1.61;100.00;94147.97;5057475;28;20682;-73
2022/01/31 06:20:07;;;;;;;7.37;3.60;;;;;;;1.58;100.00;94159.59;5049142;28;20206;-72
2022/01/31 06:22:53;;;;;;;7.67;3.50;;;;;;;1.57;100.00;94149.97;5058652;28;20690;-72
2022/01/31 06:25:39;;;;;;;13.07;3.40;;;;;;;1.57;100.00;94148.06;5070478;28;20788;-72
2022/01/31 06:28:25;;;;;;;13.90;3.67;;;;;;;1.51;100.00;94146.28;5048468;28;20659;-72
2022/01/31 06:31:18;;;;;;;7.33;3.60;;;;;;;1.49;100.00;94113.66;5026822;28;20267;-72
2022/01/31 06:34:04;;;;;;;9.27;3.17;;;;;;;1.59;100.00;94120.72;5061308;28;20193;-72
2022/01/31 06:36:50;;;;;;;13.80;3.53;;;;;;;1.56;100.00;94129.66;5056181;28;20217;-72
2022/01/31 06:39:35;;;;;;;6.67;3.00;;;;;;;1.51;100.00;94117.44;5047575;28;20198;-72
2022/01/31 06:42:22;;;;;;;10.67;3.17;;;;;;;1.51;100.00;94112.03;5052770;28;20726;-72
2022/01/31 06:45:09;;;;;;;10.57;3.10;;;;;;;1.53;100.00;94115.09;5048021;28;20197;-72
2022/01/31 06:47:55;;;;;;;10.13;3.50;;;;;;;1.61;100.00;94111.06;5054660;28;20194;-72
2022/01/31 06:50:41;;;;;;;9.13;3.57;;;;;;;1.50;100.00;94107.84;5075235;28;20718;-72
2022/01/31 06:53:28;;;;;;;13.37;3.20;;;;;;;1.56;100.00;94095.41;5064366;28;20745;-72
2022/01/31 06:56:18;;;;;;;11.43;3.50;;;;;;;1.48;100.00;94094.06;5068016;28;20982;-72
2022/01/31 06:59:04;;;;;;;5.93;2.60;;;;;;;1.46;100.00;94063.38;5052713;28;20194;-72
2022/01/31 07:01:50;;;;;;;11.00;3.47;;;;;;;1.49;100.00;94066.00;5063216;28;20304;-72
2022/01/31 07:04:36;;;;;;;7.70;3.10;;;;;;;1.46;100.00;94082.94;5063111;28;20214;-73
2022/01/31 07:07:22;;;;;;;10.43;3.10;;;;;;;1.52;100.00;94067.06;5063314;28;20209;-73
2022/01/31 07:10:08;;;;;;;7.17;3.23;;;;;;;1.51;100.00;94049.44;5053733;28;20205;-73
2022/01/31 07:12:56;;;;;;;6.70;2.30;;;;;;;1.54;100.00;94045.91;5061974;28;20194;-72
2022/01/31 07:15:42;;;;;;;10.27;3.07;;;;;;;1.61;100.00;94043.81;5065940;28;20579;-73
2022/01/31 07:18:33;;;;;;;10.20;3.60;;;;;;;1.67;100.00;94041.34;5042376;28;20194;-73
2022/01/31 07:21:29;;;;;;;9.37;3.10;;;;;;;1.62;100.00;94029.16;5065773;28;20228;-72
2022/01/31 07:24:23;;;;;;;4.13;2.60;;;;;;;1.74;100.00;94043.88;5040640;28;20660;-73
2022/01/31 07:27:10;;;;;;;7.77;3.07;;;;;;;1.78;100.00;94026.44;5063597;28;20687;-73
2022/01/31 07:29:55;;;;;;;8.03;2.73;;;;;;;1.89;100.00;94026.97;5057323;28;20213;-72
2022/01/31 07:32:42;;;;;;;8.50;2.60;;;;;;;1.91;100.00;94023.84;5059315;28;20283;-73
2022/01/31 07:35:28;;;;;;;7.93;2.80;;;;;;;1.94;100.00;94010.28;5068715;28;20272;-73
2022/01/31 07:38:15;;;;;;;11.43;2.93;;;;;;;2.00;100.00;94000.50;5064653;28;20194;-72
2022/01/31 07:41:01;;;;;;;5.77;2.60;;;;;;;2.03;100.00;93977.38;5055232;28;20225;-73
2022/01/31 07:43:47;;;;;;;8.23;2.73;;;;;;;2.21;100.00;93975.72;5066800;28;20572;-73
2022/01/31 07:46:33;;;;;;;5.40;2.17;;;;;;;2.27;100.00;93965.91;5061738;28;20198;-73
2022/01/31 07:49:21;;;;;;;7.70;2.60;;;;;;;2.32;100.00;93962.72;5065978;28;20209;-73
2022/01/31 07:52:08;;;;;;;7.60;2.70;;;;;;;2.41;100.00;93954.00;5054424;28;20208;-73
2022/01/31 07:54:54;;;;;;;7.40;2.33;;;;;;;2.43;100.00;93952.41;5078778;28;20277;-73
2022/01/31 07:57:41;;;;;;;3.53;2.03;;;;;;;2.53;100.00;93953.28;5055938;28;20632;-73
2022/01/31 08:00:28;;;;;;;6.60;2.10;;;;;;;2.60;100.00;93960.41;5071963;28;20243;-73
2022/01/31 08:03:14;;;;;;;2.10;1.90;;;;;;;2.66;100.00;93948.69;5079900;28;20197;-73
2022/01/31 08:06:01;;;;;;;5.57;2.23;;;;;;;2.71;100.00;93947.38;5071746;28;20215;-72
2022/01/31 08:08:47;;;;;;;5.87;2.13;;;;;;;2.70;100.00;93927.75;5059105;28;20272;-72
2022/01/31 08:11:35;;;;;;;2.67;2.03;;;;;;;2.77;100.00;93948.34;5049711;28;20580;-73
2022/01/31 08:14:21;;;;;;;6.07;2.20;;;;;;;2.80;100.00;93917.84;5078083;28;20197;-73
2022/01/31 08:17:07;;;;;;;4.03;2.30;;;;;;;2.83;100.00;93927.75;5069234;28;20208;-73
2022/01/31 08:19:52;;;;;;;4.63;2.30;;;;;;;2.90;99.18;93930.25;5053784;28;20202;-73
2022/01/31 08:22:38;;;;;;;2.23;1.70;;;;;;;2.89;98.95;93894.44;5068374;28;20222;-72
2022/01/31 08:25:24;;;;;;;4.03;2.20;;;;;;;3.00;97.35;93905.66;5046143;28;20214;-73
2022/01/31 08:28:11;;;;;;;7.73;2.63;;;;;;;3.03;97.03;93899.41;5044244;28;20659;-73
2022/01/31 08:31:05;;;;;;;4.80;2.00;;;;;;;3.01;97.39;93912.56;5080254;28;20670;-73
2022/01/31 08:36:44;;;;;;;4.43;1.90;;;;;;;3.05;98.69;93891.63;5064757;28;20629;-73
2022/01/31 08:39:30;;;;;;;3.23;1.90;;;;;;;2.84;100.00;93894.97;5050876;28;20263;-73
2022/01/31 08:42:16;;;;;;;3.63;2.27;;;;;;;2.65;100.00;93897.91;5062471;28;20577;-73
2022/01/31 08:45:03;;;;;;;3.93;1.90;;;;;;;2.60;100.00;93898.44;5040384;28;20233;-73
2022/01/31 08:47:49;;;;;;;5.13;2.33;;;;;;;2.55;100.00;93902.41;5054083;28;20206;-73
2022/01/31 08:50:35;;;;;;;3.17;1.83;;;;;;;2.55;100.00;93907.03;5042908;28;20695;-73
2022/01/31 08:53:21;;;;;;;5.77;2.30;;;;;;;2.42;100.00;93896.25;5050516;28;20201;-73
2022/01/31 08:56:09;;;;;;;3.30;2.30;;;;;;;2.32;100.00;93898.06;5061077;28;20296;-73
2022/01/31 08:58:56;;;;;;;3.43;2.70;;;;;;;2.17;100.00;93902.34;5050592;28;20198;-73
2022/01/31 09:01:43;;;;;;;7.20;2.90;;;;;;;2.26;100.00;93909.78;5051721;28;20217;-72
2022/01/31 09:04:48;;;;;;;6.37;2.30;;;;;;;2.16;100.00;93890.06;5059468;28;20190;-73
2022/01/31 09:07:34;;;;;;;3.37;2.40;;;;;;;2.10;100.00;93878.31;5064530;28;20584;-73
2022/01/31 09:10:20;;;;;;;3.90;2.47;;;;;;;2.16;100.00;93897.38;5066058;28;20213;-73
2022/01/31 09:13:06;;;;;;;5.67;2.60;;;;;;;2.15;100.00;93887.81;5070088;28;20276;-73
2022/01/31 09:15:52;;;;;;;4.87;2.20;;;;;;;2.18;100.00;93885.00;5065504;28;20208;-73
2022/01/31 09:18:38;;;;;;;3.97;2.60;;;;;;;2.31;100.00;93877.69;5070839;28;20304;-73
2022/01/31 09:21:24;;;;;;;4.60;2.43;;;;;;;2.36;100.00;93889.88;5045650;28;20235;-73
2022/01/31 09:24:10;;;;;;;3.60;2.23;;;;;;;2.35;100.00;93886.44;5053818;28;20197;-73
2022/01/31 09:26:57;;;;;;;4.80;2.90;;;;;;;2.38;100.00;93879.44;5046981;28;20198;-73
2022/01/31 09:29:43;;;;;;;4.17;2.70;;;;;;;2.38;100.00;93869.41;5059878;28;20201;-73
2022/01/31 09:32:29;;;;;;;3.80;2.30;;;;;;;2.40;100.00;93877.81;5062804;28;21040;-73
2022/01/31 09:35:15;;;;;;;7.87;2.37;;;;;;;2.38;100.00;93880.19;5068867;28;20198;-72
2022/01/31 09:38:03;;;;;;;2.93;2.60;;;;;;;2.31;100.00;93879.63;5046690;28;20812;-72
2022/01/31 09:40:50;;;;;;;3.07;2.10;;;;;;;2.25;100.00;93900.22;5066111;28;20340;-72
2022/01/31 09:47:03;;;;;;;3.47;2.00;;;;;;;2.16;100.00;93889.31;5063823;28;20193;-73
2022/01/31 09:49:49;;;;;;;4.20;2.50;;;;;;;2.07;100.00;93862.25;5054304;28;20273;-74
2022/01/31 09:52:35;;;;;;;4.63;2.47;;;;;;;2.10;100.00;93881.00;5067191;28;20725;-73
2022/01/31 09:55:22;;;;;;;2.83;2.13;;;;;;;2.10;100.00;93885.63;5064764;28;20189;-73
2022/01/31 09:58:08;;;;;;;3.37;1.97;;;;;;;2.11;100.00;93879.06;5062571;28;20206;-73
2022/01/31 10:01:18;;;;;;;3.17;2.17;;;;;;;2.12;100.00;93885.97;5064423;28;20309;-73
2022/01/31 10:04:18;;;;;;;3.93;1.93;;;;;;;2.12;100.00;93888.66;5060971;28;20293;-73
2022/01/31 10:07:05;;;;;;;3.13;1.77;;;;;;;2.07;100.00;93887.22;5061530;28;20194;-73
2022/01/31 10:09:51;;;;;;;3.70;1.80;;;;;;;2.07;100.00;93900.69;5060509;28;20202;-72
2022/01/31 10:19:10;;;;;;;1.57;1.33;;;;;;;2.03;100.00;93897.38;5062689;28;20272;-73
2022/01/31 10:22:06;;;;;;;2.07;1.80;;;;;;;2.02;100.00;93898.53;5069272;28;20316;-73
2022/01/31 10:24:54;;;;;;;3.87;1.90;;;;;;;2.12;100.00;93902.13;5031675;28;20686;-73
2022/01/31 10:27:52;;;;;;;2.60;1.80;;;;;;;2.20;100.00;93906.13;5059923;28;20195;-73
2022/01/31 10:30:43;;;;;;;3.80;1.50;;;;;;;2.21;100.00;93888.78;5074515;28;20837;-73
2022/01/31 10:33:33;;;;;;;1.50;1.40;;;;;;;2.16;100.00;93900.06;5064971;28;20209;-73
2022/01/31 10:36:22;;;;;;;2.47;1.57;;;;;;;2.14;100.00;93878.19;5059778;28;20205;-73
2022/01/31 10:39:15;;;;;;;1.80;1.17;;;;;;;1.96;100.00;93886.78;5062000;28;21153;-73
2022/01/31 10:52:03;;;;;;;1.20;1.10;;;;;;;1.56;100.00;93871.34;5061751;28;20619;-73
2022/01/31 10:54:40;;;;;;;1.20;1.10;;;;;;;1.66;100.00;93867.63;5059620;28;20198;-73
2022/01/31 10:57:27;;;;;;;1.10;1.10;;;;;;;1.76;100.00;93871.97;5064438;28;20219;-72
2022/01/31 11:00:13;;;;;;;2.23;1.30;;;;;;;2.08;100.00;93867.22;5053061;28;20197;-73
2022/01/31 11:03:25;;;;;;;1.30;1.20;;;;;;;2.33;100.00;93872.63;5072945;28;20897;-73
2022/01/31 11:06:12;;;;;;;1.43;1.10;;;;;;;2.28;100.00;93892.03;5041142;28;20233;-73
2022/01/31 11:09:04;;;;;;;1.90;1.40;;;;;;;1.91;100.00;93891.94;5050202;28;20200;-73
2022/01/31 11:11:50;;;;;;;3.23;1.20;;;;;;;1.75;100.00;93881.22;5046823;28;20236;-73
2022/01/31 11:14:39;;;;;;;1.70;1.30;;;;;;;1.52;100.00;93887.59;5052745;28;20563;-73
2022/01/31 11:17:25;;;;;;;1.53;1.40;;;;;;;1.31;100.00;93844.34;5050875;28;20201;-73
2022/01/31 11:20:11;;;;;;;1.00;1.00;;;;;;;1.40;100.00;93855.25;5059712;28;20198;-72
2022/01/31 11:22:59;;;;;;;2.23;1.30;;;;;;;1.70;100.00;93847.50;5065344;28;20197;-72
2022/01/31 11:25:50;;;;;;;1.20;1.10;;;;;;;1.77;100.00;93844.63;5055865;28;20563;-73
2022/01/31 11:28:39;;;;;;;2.37;1.50;;;;;;;1.79;100.00;93836.88;5064674;28;20275;-73
2022/01/31 11:31:26;;;;;;;2.67;1.00;;;;;;;1.73;100.00;93838.56;5042490;28;20679;-72
2022/01/31 11:34:13;;;;;;;3.10;1.50;;;;;;;1.62;100.00;93846.19;5046724;28;20189;-73
2022/01/31 11:37:00;;;;;;;1.57;1.30;;;;;;;1.53;100.00;93853.38;5048152;28;20194;-73
2022/01/31 11:39:52;;;;;;;1.30;1.20;;;;;;;1.35;100.00;93836.94;5065155;28;20660;-73
2022/01/31 11:42:42;;;;;;;4.37;1.20;;;;;;;1.46;100.00;93854.28;5027235;28;20233;-73
2022/01/31 11:45:39;;;;;;;1.50;1.00;;;;;;;1.63;100.00;93853.06;5043843;28;20190;-73
2022/01/31 11:48:29;;;;;;;0.73;0.73;;;;;;;1.81;100.00;93856.06;5068993;28;20197;-73
2022/01/31 11:51:14;;;;;;;0.67;0.67;;;;;;;1.85;100.00;93850.59;5057463;28;20554;-73
2022/01/31 11:54:07;;;;;;;1.60;0.80;;;;;;;1.92;100.00;93856.50;5060711;28;20198;-73
2022/01/31 11:56:53;;;;;;;1.20;1.10;;;;;;;1.99;100.00;93856.31;5042447;28;20204;-73
2022/01/31 11:59:39;;;;;;;0.80;0.80;;;;;;;2.16;100.00;93857.75;5061067;28;20204;-73
2022/01/31 12:02:30;;;;;;;2.40;1.03;;;;;;;2.25;100.00;93849.78;5039393;28;20773;-73
2022/01/31 12:05:25;;;;;;;3.03;1.17;;;;;;;2.44;100.00;93846.13;5054458;28;20308;-73
2022/01/31 12:08:21;;;;;;;1.00;0.93;;;;;;;2.38;100.00;93847.88;5050070;28;20201;-73
2022/01/31 12:11:23;;;;;;;1.33;0.80;;;;;;;2.30;100.00;93851.19;5044519;28;20587;-73
2022/01/31 12:14:21;;;;;;;0.80;0.80;;;;;;;2.43;100.00;93843.88;5053335;28;20200;-73
2022/01/31 12:18:04;;;;;;;0.87;0.87;;;;;;;2.48;100.00;93846.03;5066798;28;20185;-72
2022/01/31 12:24:01;;;;;;;2.17;0.90;;;;;;;2.37;100.00;93840.97;5069391;28;20670;-73
2022/01/31 12:26:46;;;;;;;2.57;0.80;;;;;;;2.37;100.00;93838.28;5056035;28;20206;-73
2022/01/31 12:29:37;;;;;;;1.20;1.00;;;;;;;2.37;100.00;93827.50;5059971;28;20274;-72
2022/01/31 12:32:33;;;;;;;2.53;1.77;;;;;;;2.35;100.00;93835.25;5066359;28;20204;-73
2022/01/31 12:35:38;;;;;;;1.60;0.70;;;;;;;2.46;100.00;93841.06;5079172;28;20202;-73
2022/01/31 12:38:33;;;;;;;2.57;1.13;;;;;;;2.46;100.00;93837.63;5061034;28;20219;-72
2022/01/31 12:41:30;;;;;;;2.27;1.00;;;;;;;2.35;100.00;93845.28;5068922;28;20246;-72
2022/01/31 12:44:31;;;;;;;3.30;1.00;;;;;;;2.33;100.00;93837.63;5070587;28;20193;-73
2022/01/31 12:47:17;;;;;;;2.20;0.90;;;;;;;2.38;100.00;93833.63;5066068;28;20672;-72
2022/01/31 12:50:23;;;;;;;0.80;0.80;;;;;;;2.35;100.00;93813.72;5051235;28;20251;-72
2022/01/31 12:56:26;;;;;;;1.87;0.83;;;;;;;2.43;100.00;93828.47;5043857;28;20186;-72
2022/01/31 12:59:17;;;;;;;0.70;0.70;;;;;;;2.51;100.00;93828.25;5078296;28;20182;-73
2022/01/31 13:02:06;;;;;;;0.60;0.60;;;;;;;2.41;100.00;93817.34;5058983;28;20225;-72
2022/01/31 13:04:52;;;;;;;0.93;0.90;;;;;;;2.40;100.00;93823.19;5094551;28;20192;-73
2022/01/31 13:07:40;;;;;;;3.03;0.50;;;;;;;2.49;100.00;93813.25;5062428;28;20270;-73
2022/01/31 13:10:37;;;;;;;0.70;0.70;;;;;;;2.58;100.00;93811.88;5035872;28;20197;-72
2022/01/31 13:13:36;;;;;;;3.20;0.87;;;;;;;2.47;100.00;93810.25;5046963;28;20285;-72
2022/01/31 13:16:22;;;;;;;0.60;0.60;;;;;;;2.58;100.00;93812.59;5069757;28;20726;-73
2022/01/31 13:19:20;;;;;;;1.47;0.70;;;;;;;2.56;100.00;93804.22;5050509;28;20190;-73
2022/01/31 13:22:11;;;;;;;1.00;0.70;;;;;;;2.69;100.00;93820.38;5060793;28;20221;-73
2022/01/31 13:24:59;;;;;;;1.43;0.80;;;;;;;2.66;100.00;93829.31;5046791;28;20198;-73
2022/01/31 13:27:47;;;;;;;4.13;0.90;;;;;;;2.64;100.00;93831.69;5061473;28;20193;-72
2022/01/31 13:30:33;;;;;;;1.70;0.87;;;;;;;2.70;100.00;93814.53;5064565;28;20553;-72
2022/01/31 13:33:19;;;;;;;1.07;0.83;;;;;;;2.70;100.00;93833.41;5070102;28;20394;-72
2022/01/31 13:36:05;;;;;;;0.60;0.60;;;;;;;2.73;100.00;93813.69;5068860;28;20193;-73
2022/01/31 13:38:51;;;;;;;0.80;0.80;;;;;;;2.81;100.00;93806.13;5046319;28;20648;-72
2022/01/31 13:41:40;;;;;;;0.90;0.57;;;;;;;2.81;100.00;93833.84;5072152;28;20279;-72
2022/01/31 13:44:27;;;;;;;1.03;0.80;;;;;;;2.76;100.00;93815.53;5064135;28;20216;-73